createdAt,value
2023-03-02T00:01:54.225Z,46.91
2023-03-02T00:04:33.263Z,47.87
2023-03-02T00:07:04.169Z,48.07
2023-03-02T00:09:33.422Z,48.83
2023-03-02T00:12:01.497Z,48.01
2023-03-02T00:14:29.136Z,48.04
2023-03-02T00:16:57.012Z,48.73
2023-03-02T00:19:24.978Z,49.91
2023-03-02T00:21:52.627Z,49.25
2023-03-02T00:24:20.571Z,48.42
2023-03-02T00:26:48.355Z,48.48
2023-03-02T00:29:15.999Z,48.07
2023-03-02T00:31:44.122Z,47.70
2023-03-02T00:34:11.829Z,47.88
2023-03-02T00:36:40.046Z,48.85
2023-03-02T00:39:08.596Z,49.15
2023-03-02T00:41:37.783Z,49.52
2023-03-02T00:44:05.701Z,50.06
2023-03-02T00:46:33.917Z,49.30
2023-03-02T00:49:02.021Z,49.47
2023-03-02T00:51:29.854Z,49.29
2023-03-02T00:53:57.781Z,49.50
2023-03-02T00:56:25.291Z,49.20
2023-03-02T00:58:53.041Z,48.68
2023-03-02T01:01:21.116Z,48.76
2023-03-02T01:03:49.076Z,49.34
2023-03-02T01:06:19.279Z,49.01
2023-03-02T01:08:47.623Z,49.06
2023-03-02T01:11:17.561Z,49.19
2023-03-02T01:13:46.072Z,49.46
2023-03-02T01:16:14.593Z,49.28
2023-03-02T01:18:43.008Z,48.82
2023-03-02T01:21:15.645Z,48.60
2023-03-02T01:23:43.727Z,48.67
2023-03-02T01:26:11.389Z,48.75
2023-03-02T01:28:39.123Z,48.09
2023-03-02T01:31:07.279Z,48.15
2023-03-02T01:33:34.909Z,48.14
2023-03-02T01:36:02.750Z,48.31
2023-03-02T01:38:30.779Z,48.45
2023-03-02T01:40:58.795Z,48.19
2023-03-02T01:43:26.576Z,48.08
2023-03-02T01:45:59.095Z,48.30
2023-03-02T01:48:48.039Z,48.52
2023-03-02T01:51:23.229Z,48.63
2023-03-02T01:53:55.618Z,48.59
2023-03-02T01:56:31.499Z,48.36
2023-03-02T01:59:03.670Z,48.29
2023-03-02T02:01:34.573Z,49.19
2023-03-02T02:04:02.926Z,48.97
2023-03-02T02:07:03.409Z,48.60
2023-03-02T02:09:35.419Z,48.70
2023-03-02T02:12:03.687Z,48.52
2023-03-02T02:14:31.816Z,48.59
2023-03-02T02:16:59.668Z,48.44
2023-03-02T02:19:42.460Z,48.61
2023-03-02T02:22:12.055Z,48.66
2023-03-02T02:24:52.489Z,49.43
2023-03-02T02:27:20.496Z,49.95
2023-03-02T02:29:52.629Z,50.07
2023-03-02T02:32:30.817Z,49.60
2023-03-02T02:35:05.177Z,49.63
2023-03-02T02:37:38.640Z,49.58
2023-03-02T02:40:12.567Z,49.80
2023-03-02T02:42:48.618Z,51.01
2023-03-02T02:45:21.223Z,50.83
2023-03-02T02:47:50.159Z,51.12
2023-03-02T02:50:32.265Z,50.68
2023-03-02T02:53:20.405Z,51.17
2023-03-02T02:55:52.043Z,50.81
2023-03-02T02:58:56.701Z,51.24
2023-03-02T03:01:26.298Z,51.31
2023-03-02T03:04:02.286Z,51.42
2023-03-02T03:06:42.403Z,51.70
2023-03-02T03:09:12.479Z,51.62
2023-03-02T03:11:43.714Z,51.71
2023-03-02T03:14:15.455Z,51.72
2023-03-02T03:16:46.520Z,51.76
2023-03-02T03:19:18.387Z,52.39
2023-03-02T03:21:49.739Z,52.25
2023-03-02T03:24:18.643Z,51.97
2023-03-02T03:26:46.798Z,52.25
2023-03-02T03:29:15.792Z,51.97
2023-03-02T03:31:44.490Z,52.15
2023-03-02T03:34:12.406Z,51.83
2023-03-02T03:36:40.152Z,51.86
2023-03-02T03:39:08.204Z,52.43
2023-03-02T03:41:36.317Z,52.02
2023-03-02T03:44:04.419Z,52.30
2023-03-02T03:46:34.424Z,52.49
2023-03-02T03:49:03.500Z,52.27
2023-03-02T03:51:35.393Z,52.38
2023-03-02T03:54:05.575Z,52.55
2023-03-02T03:56:36.932Z,52.51
2023-03-02T03:59:07.509Z,52.40
2023-03-02T04:01:41.877Z,52.50
2023-03-02T04:04:17.247Z,52.62
2023-03-02T04:06:45.072Z,53.20
2023-03-02T04:09:15.440Z,53.53
2023-03-02T04:11:45.135Z,53.08
2023-03-02T04:14:14.273Z,53.44
2023-03-02T04:16:42.091Z,53.34
2023-03-02T04:19:10.493Z,53.22
2023-03-02T04:21:41.615Z,52.80
2023-03-02T04:24:10.111Z,52.65
2023-03-02T04:26:40.570Z,52.33
2023-03-02T04:29:09.418Z,53.47
2023-03-02T04:31:38.063Z,53.43
2023-03-02T04:34:07.940Z,53.50
2023-03-02T04:36:39.022Z,53.27
2023-03-02T04:39:07.913Z,53.33
2023-03-02T04:41:35.974Z,53.35
2023-03-02T04:44:03.683Z,53.74
2023-03-02T04:46:32.090Z,53.61
2023-03-02T04:49:00.083Z,53.67
2023-03-02T04:51:38.418Z,54.00
2023-03-02T04:54:11.627Z,53.05
2023-03-02T04:56:39.239Z,52.76
2023-03-02T04:59:07.369Z,52.27
2023-03-02T05:01:35.069Z,52.02
2023-03-02T05:04:03.203Z,52.87
2023-03-02T05:06:31.414Z,51.77
2023-03-02T05:09:00.231Z,52.62
2023-03-02T05:11:28.426Z,51.91
2023-03-02T05:13:59.489Z,52.72
2023-03-02T05:16:29.450Z,52.68
2023-03-02T05:18:58.943Z,52.38
2023-03-02T05:21:27.247Z,52.25
2023-03-02T05:23:55.014Z,51.96
2023-03-02T05:26:23.509Z,51.66
2023-03-02T05:28:53.891Z,51.25
2023-03-02T05:31:28.643Z,51.60
2023-03-02T05:33:56.602Z,51.46
2023-03-02T05:36:24.215Z,50.59
2023-03-02T05:38:51.937Z,50.53
2023-03-02T05:41:20.003Z,50.66
2023-03-02T05:43:47.802Z,50.79
2023-03-02T05:46:17.376Z,50.59
2023-03-02T05:48:46.599Z,50.21
2023-03-02T05:51:14.196Z,50.25
2023-03-02T05:53:41.890Z,50.33
2023-03-02T05:56:10.094Z,51.31
2023-03-02T05:58:37.935Z,51.14
2023-03-02T06:01:13.558Z,51.69
2023-03-02T06:03:43.747Z,51.75
2023-03-02T06:06:15.206Z,51.48
2023-03-02T06:08:44.487Z,52.56
2023-03-02T06:11:12.797Z,53.39
2023-03-02T06:13:40.603Z,53.44
2023-03-02T06:16:09.108Z,53.48
2023-03-02T06:18:39.745Z,53.52
2023-03-02T06:21:09.360Z,53.78
2023-03-02T06:23:37.018Z,54.05
2023-03-02T06:26:10.024Z,54.93
2023-03-02T06:28:51.347Z,54.70
2023-03-02T06:31:21.387Z,54.94
2023-03-02T06:33:49.859Z,55.09
2023-03-02T06:36:17.956Z,55.13
2023-03-02T06:38:45.891Z,57.33
2023-03-02T06:41:13.796Z,54.18
2023-03-02T06:43:41.604Z,53.43
2023-03-02T06:46:09.351Z,53.53
2023-03-02T06:48:40.133Z,52.91
2023-03-02T06:51:08.375Z,51.96
2023-03-02T06:53:36.116Z,52.69
2023-03-02T06:56:04.430Z,52.61
2023-03-02T06:58:32.196Z,52.16
2023-03-02T07:01:00.047Z,51.94
2023-03-02T07:03:28.063Z,52.11
2023-03-02T07:05:55.891Z,52.03
2023-03-02T07:08:24.044Z,51.42
2023-03-02T07:10:52.006Z,51.79
2023-03-02T07:13:20.088Z,51.47
2023-03-02T07:15:48.046Z,51.90
2023-03-02T07:18:16.126Z,51.47
2023-03-02T07:20:44.464Z,51.23
2023-03-02T07:23:12.360Z,51.76
2023-03-02T07:25:40.230Z,50.96
2023-03-02T07:28:07.896Z,50.70
2023-03-02T07:30:35.691Z,51.73
2023-03-02T07:33:03.651Z,50.62
2023-03-02T07:35:31.253Z,51.04
2023-03-02T07:37:58.871Z,51.27
2023-03-02T07:40:27.088Z,51.19
2023-03-02T07:42:54.670Z,51.29
2023-03-02T07:45:24.941Z,50.86
2023-03-02T07:47:53.047Z,50.77
2023-03-02T07:50:21.159Z,51.03
2023-03-02T07:52:48.838Z,50.11
2023-03-02T07:55:16.909Z,49.22
2023-03-02T07:57:44.668Z,50.06
2023-03-02T08:00:13.045Z,50.36
2023-03-02T08:02:42.630Z,51.41
2023-03-02T08:05:12.242Z,50.56
2023-03-02T08:07:44.053Z,50.02
2023-03-02T08:10:12.450Z,49.61
2023-03-02T08:12:45.562Z,49.63
2023-03-02T08:15:13.465Z,49.83
2023-03-02T08:17:41.098Z,49.52
2023-03-02T08:20:12.124Z,49.20
2023-03-02T08:22:41.960Z,48.74
2023-03-02T08:25:09.788Z,48.63
2023-03-02T08:27:40.260Z,49.80
2023-03-02T08:30:10.959Z,48.95
2023-03-02T08:32:45.734Z,48.72
2023-03-02T08:35:13.709Z,48.90
2023-03-02T08:37:41.269Z,49.53
2023-03-02T08:40:12.747Z,49.09
2023-03-02T08:42:42.988Z,48.62
2023-03-02T08:45:10.780Z,48.76
2023-03-02T08:47:38.436Z,47.60
2023-03-02T08:50:09.613Z,48.62
2023-03-02T08:52:37.560Z,47.72
2023-03-02T08:55:05.918Z,47.49
2023-03-02T08:57:34.858Z,47.46
2023-03-02T09:00:08.660Z,46.54
2023-03-02T09:02:36.551Z,47.31
2023-03-02T09:05:04.425Z,46.36
2023-03-02T09:07:32.116Z,47.21
2023-03-02T09:10:01.208Z,45.85
2023-03-02T09:12:31.839Z,45.75
2023-03-02T09:14:59.628Z,45.11
2023-03-02T09:17:27.496Z,44.99
2023-03-02T09:19:55.081Z,44.71
2023-03-02T09:22:22.841Z,45.70
2023-03-02T09:24:50.861Z,44.84
2023-03-02T09:27:18.548Z,45.30
2023-03-02T09:29:46.216Z,43.96
2023-03-02T09:32:16.144Z,44.05
2023-03-02T09:34:43.913Z,43.03
2023-03-02T09:37:11.484Z,42.91
2023-03-02T09:39:39.882Z,43.56
2023-03-02T09:42:16.295Z,43.86
2023-03-02T09:45:14.573Z,44.33
2023-03-02T09:48:10.917Z,45.15
2023-03-02T09:50:45.847Z,45.47
2023-03-02T09:53:38.394Z,44.79
2023-03-02T09:56:14.862Z,45.12
2023-03-02T09:58:49.548Z,45.24
2023-03-02T10:01:30.132Z,45.14
2023-03-02T10:04:08.316Z,45.70
2023-03-02T10:06:36.056Z,45.92
2023-03-02T10:09:03.966Z,45.05
2023-03-02T10:12:32.954Z,45.44
2023-03-02T10:15:19.230Z,44.16
2023-03-02T10:17:53.063Z,43.78
2023-03-02T10:20:34.148Z,43.61
2023-03-02T10:23:28.650Z,43.95
2023-03-02T10:26:11.418Z,43.93
2023-03-02T10:29:10.888Z,44.35
2023-03-02T10:31:41.311Z,44.35
2023-03-02T10:34:11.666Z,44.17
2023-03-02T10:36:43.203Z,43.41
2023-03-02T10:39:15.365Z,43.82
2023-03-02T10:42:06.891Z,43.87
2023-03-02T10:44:39.701Z,44.71
2023-03-02T10:47:08.663Z,44.36
2023-03-02T10:49:42.030Z,44.49
2023-03-02T10:52:15.286Z,44.06
2023-03-02T10:54:43.005Z,44.38
2023-03-02T10:57:23.064Z,44.83
2023-03-02T10:59:52.789Z,44.86
2023-03-02T11:02:27.618Z,45.05
2023-03-02T11:04:57.349Z,44.65
2023-03-02T11:07:28.617Z,44.67
2023-03-02T11:10:02.014Z,44.69
2023-03-02T11:12:32.004Z,44.47
2023-03-02T11:15:19.658Z,44.06
2023-03-02T11:18:29.101Z,44.77
2023-03-02T11:21:04.603Z,45.42
2023-03-02T11:24:06.108Z,44.86
2023-03-02T11:26:45.119Z,44.08
2023-03-02T11:29:39.048Z,44.63
2023-03-02T11:32:25.636Z,45.03
2023-03-02T11:35:08.972Z,44.54
2023-03-02T11:37:42.729Z,44.84
2023-03-02T11:40:23.884Z,45.89
2023-03-02T11:42:52.891Z,45.36
2023-03-02T11:45:24.276Z,44.85
2023-03-02T11:48:03.303Z,44.74
2023-03-02T11:50:37.642Z,46.54
2023-03-02T11:53:12.109Z,45.62
2023-03-02T11:55:50.733Z,45.34
2023-03-02T11:58:21.538Z,45.60
2023-03-02T12:00:51.150Z,46.03
2023-03-02T12:03:22.477Z,45.12
2023-03-02T12:05:52.845Z,45.40
2023-03-02T12:08:20.727Z,46.20
2023-03-02T12:11:25.740Z,46.48
2023-03-02T12:14:04.752Z,45.74
2023-03-02T12:16:36.157Z,47.32
2023-03-02T12:19:16.507Z,46.44
2023-03-02T12:21:57.224Z,46.88
2023-03-02T12:24:28.450Z,47.30
2023-03-02T12:27:03.745Z,46.59
2023-03-02T12:29:44.276Z,46.27
2023-03-02T12:32:26.265Z,46.48
2023-03-02T12:35:02.876Z,46.86
2023-03-02T12:37:49.587Z,46.05
2023-03-02T12:40:35.756Z,46.35
2023-03-02T12:43:24.657Z,46.35
2023-03-02T12:46:14.390Z,45.92
2023-03-02T12:48:45.808Z,46.94
2023-03-02T12:51:23.754Z,46.09
2023-03-02T12:54:22.476Z,46.00
2023-03-02T12:56:50.960Z,46.24
2023-03-02T12:59:28.896Z,46.66
2023-03-02T13:02:16.415Z,45.68
2023-03-02T13:04:44.876Z,45.48
2023-03-02T13:07:19.557Z,45.99
2023-03-02T13:09:57.234Z,46.03
2023-03-02T13:12:29.501Z,45.49
2023-03-02T13:14:59.240Z,46.76
2023-03-02T13:17:32.637Z,46.93
2023-03-02T13:20:03.612Z,46.05
2023-03-02T13:22:32.188Z,46.70
2023-03-02T13:25:08.206Z,47.22
2023-03-02T13:27:36.167Z,45.81
2023-03-02T13:30:28.596Z,46.28
2023-03-02T13:33:01.701Z,45.33
2023-03-02T13:35:32.959Z,45.97
2023-03-02T13:38:03.228Z,45.14
2023-03-02T13:40:37.793Z,45.51
2023-03-02T13:43:23.908Z,45.75
2023-03-02T13:46:07.807Z,46.70
2023-03-02T13:48:35.784Z,45.75
2023-03-02T13:51:14.216Z,46.35
2023-03-02T13:53:53.384Z,46.57
2023-03-02T13:56:29.524Z,46.79
2023-03-02T13:58:57.800Z,45.19
2023-03-02T14:01:26.429Z,45.60
2023-03-02T14:03:57.310Z,45.62
2023-03-02T14:06:28.860Z,45.81
2023-03-02T14:08:56.849Z,44.19
2023-03-02T14:11:24.824Z,43.95
2023-03-02T14:13:54.606Z,44.36
2023-03-02T14:16:24.227Z,44.74
2023-03-02T14:18:56.294Z,43.44
2023-03-02T14:21:25.782Z,43.83
2023-03-02T14:23:54.312Z,43.25
2023-03-02T14:26:31.300Z,42.88
2023-03-02T14:29:26.098Z,42.57
2023-03-02T14:31:55.666Z,42.74
2023-03-02T14:34:23.841Z,44.17
2023-03-02T14:36:56.219Z,43.19
2023-03-02T14:39:37.635Z,42.38
2023-03-02T14:42:10.832Z,42.38
2023-03-02T14:44:38.682Z,42.31
2023-03-02T14:47:07.232Z,42.68
2023-03-02T14:49:35.060Z,43.38
2023-03-02T14:52:12.108Z,43.61
2023-03-02T14:55:01.974Z,43.72
2023-03-02T14:57:35.410Z,44.20
2023-03-02T15:00:05.132Z,43.25
2023-03-02T15:02:36.110Z,43.97
2023-03-02T15:05:03.964Z,45.68
2023-03-02T15:07:31.730Z,46.54
2023-03-02T15:10:02.262Z,45.06
2023-03-02T15:12:30.143Z,45.23
2023-03-02T15:14:57.686Z,45.00
2023-03-02T15:17:25.611Z,44.75
2023-03-02T15:19:53.747Z,44.86
2023-03-02T15:22:21.385Z,46.35
2023-03-02T15:24:49.345Z,46.10
2023-03-02T15:27:17.405Z,44.92
2023-03-02T15:29:47.215Z,45.28
2023-03-02T15:32:15.941Z,45.64
2023-03-02T15:34:43.920Z,45.16
2023-03-02T15:37:12.743Z,45.57
2023-03-02T15:39:44.525Z,45.93
2023-03-02T15:42:13.896Z,45.25
2023-03-02T15:44:42.282Z,45.52
2023-03-02T15:47:11.119Z,46.82
2023-03-02T15:49:38.882Z,46.62
2023-03-02T15:52:06.728Z,47.42
2023-03-02T15:54:34.281Z,47.12
2023-03-02T15:57:01.913Z,47.69
2023-03-02T15:59:31.249Z,47.52
2023-03-02T16:02:02.139Z,48.49
2023-03-02T16:04:32.005Z,48.52
2023-03-02T16:07:00.120Z,48.85
2023-03-02T16:09:29.051Z,48.58
2023-03-02T16:11:57.529Z,48.92
2023-03-02T16:14:25.230Z,48.91
2023-03-02T16:16:53.195Z,48.71
2023-03-02T16:19:21.516Z,48.67
2023-03-02T16:21:49.402Z,48.39
2023-03-02T16:24:17.409Z,48.49
2023-03-02T16:26:45.765Z,48.72
2023-03-02T16:29:14.006Z,48.50
2023-03-02T16:31:45.218Z,48.55
2023-03-02T16:34:14.107Z,48.58
2023-03-02T16:36:42.482Z,48.76
2023-03-02T16:39:12.080Z,48.96
2023-03-02T16:41:42.423Z,48.69
2023-03-02T16:44:11.722Z,49.18
2023-03-02T16:46:40.280Z,49.41
2023-03-02T16:49:08.954Z,49.32
2023-03-02T16:51:37.373Z,49.66
2023-03-02T16:54:05.441Z,49.87
2023-03-02T16:56:33.570Z,50.01
2023-03-02T16:59:01.507Z,50.11
2023-03-02T17:01:29.548Z,50.09
2023-03-02T17:03:57.804Z,49.95
2023-03-02T17:06:25.746Z,50.43
2023-03-02T17:08:54.090Z,50.93
2023-03-02T17:11:23.116Z,51.28
2023-03-02T17:13:52.585Z,51.12
2023-03-02T17:16:20.817Z,51.04
2023-03-02T17:18:48.859Z,51.96
2023-03-02T17:21:17.237Z,52.08
2023-03-02T17:23:48.077Z,52.39
2023-03-02T17:26:17.034Z,52.47
2023-03-02T17:28:45.077Z,52.88
2023-03-02T17:31:13.512Z,52.30
2023-03-02T17:33:41.645Z,52.59
2023-03-02T17:36:12.148Z,53.38
2023-03-02T17:38:40.792Z,53.33
2023-03-02T17:41:10.823Z,54.34
2023-03-02T17:43:41.477Z,54.17
2023-03-02T17:46:14.795Z,53.71
2023-03-02T17:48:43.526Z,53.51
2023-03-02T17:51:14.792Z,53.75
2023-03-02T17:53:48.185Z,53.37
2023-03-02T17:56:19.186Z,53.70
2023-03-02T17:58:47.317Z,54.04
2023-03-02T18:01:15.942Z,53.96
2023-03-02T18:03:45.240Z,54.38
2023-03-02T18:06:14.134Z,55.25
2023-03-02T18:08:41.677Z,54.94
2023-03-02T18:11:10.089Z,55.27
2023-03-02T18:13:38.081Z,56.54
2023-03-02T18:16:06.562Z,56.52
2023-03-02T18:18:34.836Z,55.82
2023-03-02T18:21:02.992Z,55.93
2023-03-02T18:23:31.478Z,55.76
2023-03-02T18:25:59.496Z,56.02
2023-03-02T18:28:27.482Z,56.19
2023-03-02T18:30:55.450Z,56.15
2023-03-02T18:33:23.551Z,56.63
2023-03-02T18:35:52.265Z,56.66
2023-03-02T18:38:20.236Z,57.34
2023-03-02T18:40:48.407Z,57.20
2023-03-02T18:43:16.765Z,57.09
2023-03-02T18:45:44.356Z,57.44
2023-03-02T18:48:12.731Z,57.22
2023-03-02T18:50:40.468Z,57.77
2023-03-02T18:53:08.703Z,57.68
2023-03-02T18:55:37.264Z,57.97
2023-03-02T18:58:07.455Z,57.49
2023-03-02T19:00:36.294Z,58.16
2023-03-02T19:03:04.417Z,58.30
2023-03-02T19:05:32.441Z,58.55
2023-03-02T19:08:00.439Z,58.02
2023-03-02T19:10:29.130Z,58.18
2023-03-02T19:12:56.741Z,58.67
2023-03-02T19:15:25.007Z,58.87
2023-03-02T19:17:53.552Z,58.66
2023-03-02T19:20:22.217Z,58.76
2023-03-02T19:22:50.492Z,58.67
2023-03-02T19:25:18.718Z,58.74
2023-03-02T19:27:48.199Z,58.90
2023-03-02T19:30:24.847Z,59.51
2023-03-02T19:32:54.281Z,59.37
2023-03-02T19:35:25.214Z,59.96
2023-03-02T19:37:53.608Z,59.36
2023-03-02T19:40:24.788Z,59.54
2023-03-02T19:42:53.222Z,59.23
2023-03-02T19:45:29.973Z,59.28
2023-03-02T19:47:59.972Z,59.81
2023-03-02T19:50:29.555Z,59.96
2023-03-02T19:52:59.096Z,59.45
2023-03-02T19:55:27.324Z,59.92
2023-03-02T19:57:59.631Z,60.69
2023-03-02T20:00:31.759Z,60.46
2023-03-02T20:03:00.557Z,61.52
2023-03-02T20:05:28.572Z,62.16
2023-03-02T20:07:56.700Z,61.82
2023-03-02T20:10:31.147Z,61.45
2023-03-02T20:13:00.714Z,62.43
2023-03-02T20:15:31.053Z,61.89
2023-03-02T20:18:02.485Z,62.29
2023-03-02T20:20:33.094Z,61.57
2023-03-02T20:23:01.100Z,61.59
2023-03-02T20:25:29.671Z,61.54
2023-03-02T20:27:58.867Z,61.79
2023-03-02T20:30:31.637Z,61.21
2023-03-02T20:33:00.890Z,61.77
2023-03-02T20:35:32.780Z,61.48
2023-03-02T20:38:05.467Z,61.79
2023-03-02T20:40:34.225Z,61.20
2023-03-02T20:43:02.454Z,61.36
2023-03-02T20:45:30.436Z,60.98
2023-03-02T20:47:59.125Z,61.05
2023-03-02T20:50:30.807Z,60.79
2023-03-02T20:52:59.486Z,61.20
2023-03-02T20:55:28.725Z,62.33
2023-03-02T20:57:57.279Z,63.22
2023-03-02T21:00:28.110Z,63.15
2023-03-02T21:02:57.260Z,62.91
2023-03-02T21:05:26.969Z,62.87
2023-03-02T21:07:55.507Z,64.03
2023-03-02T21:10:29.856Z,64.24
2023-03-02T21:12:57.811Z,63.38
2023-03-02T21:15:27.260Z,63.17
2023-03-02T21:17:55.900Z,62.58
2023-03-02T21:20:31.328Z,62.37
2023-03-02T21:22:59.840Z,62.06
2023-03-02T21:25:28.333Z,62.37
2023-03-02T21:27:57.238Z,63.52
2023-03-02T21:30:35.738Z,63.39
2023-03-02T21:33:03.612Z,63.55
2023-03-02T21:35:31.703Z,62.94
2023-03-02T21:38:03.770Z,63.00
2023-03-02T21:40:45.890Z,63.79
2023-03-02T21:43:16.235Z,64.53
2023-03-02T21:45:44.497Z,64.54
2023-03-02T21:48:13.926Z,64.18
2023-03-02T21:50:42.222Z,64.12
2023-03-02T21:53:10.250Z,63.35
2023-03-02T21:55:38.103Z,63.26
2023-03-02T21:58:06.211Z,63.02
2023-03-02T22:00:37.522Z,63.46
2023-03-02T22:03:06.800Z,64.38
2023-03-02T22:05:34.493Z,64.57
2023-03-02T22:08:02.194Z,64.15
2023-03-02T22:10:46.098Z,63.72
2023-03-02T22:13:14.031Z,64.78
2023-03-02T22:15:42.139Z,64.69
2023-03-02T22:18:15.395Z,64.18
2023-03-02T22:20:47.359Z,64.51
2023-03-02T22:23:16.227Z,63.73
2023-03-02T22:25:44.441Z,63.09
2023-03-02T22:28:18.484Z,62.92
2023-03-02T22:30:48.016Z,62.67
2023-03-02T22:33:25.212Z,62.74
2023-03-02T22:35:59.854Z,62.98
2023-03-02T22:38:30.183Z,63.46
2023-03-02T22:40:58.257Z,63.44
2023-03-02T22:43:30.971Z,63.04
2023-03-02T22:46:15.890Z,63.39
2023-03-02T22:48:46.286Z,63.19
2023-03-02T22:51:24.262Z,62.99
2023-03-02T22:53:54.360Z,63.10
2023-03-02T22:56:52.731Z,63.84
2023-03-02T22:59:24.498Z,63.86
2023-03-02T23:02:08.151Z,65.34
2023-03-02T23:04:37.997Z,64.49
2023-03-02T23:07:19.400Z,63.76
2023-03-02T23:09:47.952Z,64.95
2023-03-02T23:12:22.030Z,66.40
2023-03-02T23:14:51.201Z,65.25
2023-03-02T23:17:34.218Z,65.33
2023-03-02T23:20:03.079Z,66.77
2023-03-02T23:22:31.629Z,66.64
2023-03-02T23:24:59.432Z,67.02
2023-03-02T23:27:27.844Z,66.32
2023-03-02T23:29:55.876Z,66.53
2023-03-02T23:32:23.642Z,66.04
2023-03-02T23:34:51.373Z,65.07
2023-03-02T23:37:19.354Z,66.10
2023-03-02T23:39:46.908Z,66.04
2023-03-02T23:42:14.735Z,65.20
2023-03-02T23:44:42.643Z,65.35
2023-03-02T23:47:10.179Z,65.00
2023-03-02T23:49:37.859Z,65.28
2023-03-02T23:52:06.093Z,65.43
2023-03-02T23:54:33.877Z,66.04
2023-03-02T23:57:01.513Z,65.13
2023-03-02T23:59:29.500Z,64.99
